Beehive, Montana
Current Conditions -  °F | °C
As of 1:53 AM on Wednesday 28 Jan 2015 (Local Time) from KLVM Reporting Station
Broken Clouds Broken Clouds  
Wind Chill:   Ceiling: 9000
Heat Index:   Visibility: 10mi
Dew Point:   Wind: 28mph
Humidity: 66%   Direction: 220°SW
Pressure: 29.98"   Gusts: 36mph
Location:  45.4577°N, 109.823°W
Report Text: KLVM 280853Z AUTO 22024G31KT 10SM BKN090 08/02 A2998 RMK AO2 PK WND 22037/0818 SLP130 T00780017 50008
Loading
Personal Weather Stations






























Interactive Weather Map New forecast layout! Learn more

10-Day Weather Forecast

Advertisements
Track Severe Weather on mobile